sensor_id;sensor_type;location;lat;lon;timestamp;temperature;humidity
22544;DHT22;11438;52.044;8.716;2022-11-15T00:01:22;12.70;96.20
22544;DHT22;11438;52.044;8.716;2022-11-15T00:03:51;12.70;96.20
22544;DHT22;11438;52.044;8.716;2022-11-15T00:06:17;12.70;96.40
22544;DHT22;11438;52.044;8.716;2022-11-15T00:08:42;12.80;96.40
22544;DHT22;11438;52.044;8.716;2022-11-15T00:11:10;12.80;96.50
22544;DHT22;11438;52.044;8.716;2022-11-15T00:13:36;12.90;96.50
22544;DHT22;11438;52.044;8.716;2022-11-15T00:16:02;12.90;96.60
22544;DHT22;11438;52.044;8.716;2022-11-15T00:18:28;12.90;96.60
22544;DHT22;11438;52.044;8.716;2022-11-15T00:20:54;13.00;96.60
22544;DHT22;11438;52.044;8.716;2022-11-15T00:23:20;13.00;96.60
22544;DHT22;11438;52.044;8.716;2022-11-15T00:25:45;13.00;96.60
22544;DHT22;11438;52.044;8.716;2022-11-15T00:28:11;13.10;96.70
22544;DHT22;11438;52.044;8.716;2022-11-15T00:30:37;13.10;96.70
22544;DHT22;11438;52.044;8.716;2022-11-15T00:33:04;13.10;96.70
22544;DHT22;11438;52.044;8.716;2022-11-15T00:35:34;13.10;96.70
22544;DHT22;11438;52.044;8.716;2022-11-15T00:38:00;13.10;96.80
22544;DHT22;11438;52.044;8.716;2022-11-15T00:40:26;13.20;96.80
22544;DHT22;11438;52.044;8.716;2022-11-15T00:42:52;13.20;96.80
22544;DHT22;11438;52.044;8.716;2022-11-15T00:45:17;13.10;96.80
22544;DHT22;11438;52.044;8.716;2022-11-15T00:47:46;13.20;96.90
22544;DHT22;11438;52.044;8.716;2022-11-15T00:50:12;13.20;96.90
22544;DHT22;11438;52.044;8.716;2022-11-15T00:52:38;13.30;97.10
22544;DHT22;11438;52.044;8.716;2022-11-15T00:55:03;13.20;97.10
22544;DHT22;11438;52.044;8.716;2022-11-15T00:57:29;13.30;97.20
22544;DHT22;11438;52.044;8.716;2022-11-15T00:59:54;13.30;97.30
22544;DHT22;11438;52.044;8.716;2022-11-15T01:02:20;13.30;97.30
22544;DHT22;11438;52.044;8.716;2022-11-15T01:04:46;13.40;97.40
22544;DHT22;11438;52.044;8.716;2022-11-15T01:07:11;13.40;97.50
22544;DHT22;11438;52.044;8.716;2022-11-15T01:09:37;13.40;97.60
22544;DHT22;11438;52.044;8.716;2022-11-15T01:12:03;13.40;97.60
22544;DHT22;11438;52.044;8.716;2022-11-15T01:14:29;13.50;97.60
22544;DHT22;11438;52.044;8.716;2022-11-15T01:16:54;13.50;97.60
22544;DHT22;11438;52.044;8.716;2022-11-15T01:19:20;13.50;97.60
22544;DHT22;11438;52.044;8.716;2022-11-15T01:21:45;13.60;97.70
22544;DHT22;11438;52.044;8.716;2022-11-15T01:24:13;13.60;97.70
22544;DHT22;11438;52.044;8.716;2022-11-15T01:26:39;13.60;97.70
22544;DHT22;11438;52.044;8.716;2022-11-15T01:29:04;13.70;97.80
22544;DHT22;11438;52.044;8.716;2022-11-15T01:31:30;13.60;97.80
22544;DHT22;11438;52.044;8.716;2022-11-15T01:33:55;13.70;97.80
22544;DHT22;11438;52.044;8.716;2022-11-15T01:36:22;13.70;97.60
22544;DHT22;11438;52.044;8.716;2022-11-15T01:38:58;13.70;97.40
22544;DHT22;11438;52.044;8.716;2022-11-15T01:41:27;13.80;97.30
22544;DHT22;11438;52.044;8.716;2022-11-15T01:43:55;13.70;97.20
22544;DHT22;11438;52.044;8.716;2022-11-15T01:48:47;13.70;97.20
22544;DHT22;11438;52.044;8.716;2022-11-15T01:51:17;13.80;97.20
22544;DHT22;11438;52.044;8.716;2022-11-15T01:53:46;13.70;97.20
22544;DHT22;11438;52.044;8.716;2022-11-15T01:56:16;13.70;97.20
22544;DHT22;11438;52.044;8.716;2022-11-15T01:58:44;13.70;97.20
22544;DHT22;11438;52.044;8.716;2022-11-15T02:01:12;13.70;97.20
22544;DHT22;11438;52.044;8.716;2022-11-15T02:03:56;13.80;97.30
22544;DHT22;11438;52.044;8.716;2022-11-15T02:06:23;13.70;97.20
22544;DHT22;11438;52.044;8.716;2022-11-15T02:08:49;13.60;97.20
22544;DHT22;11438;52.044;8.716;2022-11-15T02:11:15;13.60;97.20
22544;DHT22;11438;52.044;8.716;2022-11-15T02:13:41;13.60;97.20
22544;DHT22;11438;52.044;8.716;2022-11-15T02:24:54;13.40;97.50
22544;DHT22;11438;52.044;8.716;2022-11-15T02:36:05;13.40;98.00
22544;DHT22;11438;52.044;8.716;2022-11-15T02:38:58;13.40;98.00
22544;DHT22;11438;52.044;8.716;2022-11-15T02:44:21;13.40;98.20
22544;DHT22;11438;52.044;8.716;2022-11-15T02:46:55;13.40;98.20
22544;DHT22;11438;52.044;8.716;2022-11-15T02:49:45;13.40;98.20
22544;DHT22;11438;52.044;8.716;2022-11-15T02:52:19;13.40;98.20
22544;DHT22;11438;52.044;8.716;2022-11-15T02:54:56;13.40;98.20
22544;DHT22;11438;52.044;8.716;2022-11-15T03:00:17;13.50;98.30
22544;DHT22;11438;52.044;8.716;2022-11-15T03:08:47;13.50;98.40
22544;DHT22;11438;52.044;8.716;2022-11-15T03:11:20;13.50;98.70
22544;DHT22;11438;52.044;8.716;2022-11-15T03:14:10;13.60;98.90
22544;DHT22;11438;52.044;8.716;2022-11-15T03:17:16;13.50;99.10
22544;DHT22;11438;52.044;8.716;2022-11-15T03:19:47;13.60;99.30
22544;DHT22;11438;52.044;8.716;2022-11-15T03:22:19;13.70;99.30
22544;DHT22;11438;52.044;8.716;2022-11-15T03:24:47;13.70;99.40
22544;DHT22;11438;52.044;8.716;2022-11-15T03:27:19;13.70;99.40
22544;DHT22;11438;52.044;8.716;2022-11-15T03:29:50;13.80;99.40
22544;DHT22;11438;52.044;8.716;2022-11-15T03:32:22;13.80;99.40
22544;DHT22;11438;52.044;8.716;2022-11-15T03:38:16;13.80;99.50
22544;DHT22;11438;52.044;8.716;2022-11-15T03:41:00;13.90;99.40
22544;DHT22;11438;52.044;8.716;2022-11-15T03:46:40;14.00;99.40
22544;DHT22;11438;52.044;8.716;2022-11-15T03:49:14;14.00;99.40
22544;DHT22;11438;52.044;8.716;2022-11-15T03:51:40;14.00;99.40
22544;DHT22;11438;52.044;8.716;2022-11-15T03:54:06;14.10;99.30
22544;DHT22;11438;52.044;8.716;2022-11-15T03:56:31;14.10;99.30
22544;DHT22;11438;52.044;8.716;2022-11-15T03:58:57;14.10;99.30
22544;DHT22;11438;52.044;8.716;2022-11-15T04:01:22;14.20;99.30
22544;DHT22;11438;52.044;8.716;2022-11-15T04:03:48;14.20;99.30
22544;DHT22;11438;52.044;8.716;2022-11-15T04:06:14;14.20;99.20
22544;DHT22;11438;52.044;8.716;2022-11-15T04:08:39;14.30;99.20
22544;DHT22;11438;52.044;8.716;2022-11-15T04:11:05;14.20;99.20
22544;DHT22;11438;52.044;8.716;2022-11-15T04:13:30;14.20;99.10
22544;DHT22;11438;52.044;8.716;2022-11-15T04:15:56;14.30;99.10
22544;DHT22;11438;52.044;8.716;2022-11-15T04:18:21;14.30;99.00
22544;DHT22;11438;52.044;8.716;2022-11-15T04:20:47;14.30;98.90
22544;DHT22;11438;52.044;8.716;2022-11-15T04:23:31;14.30;98.90
22544;DHT22;11438;52.044;8.716;2022-11-15T04:26:17;14.30;98.90
22544;DHT22;11438;52.044;8.716;2022-11-15T04:28:44;14.30;98.80
22544;DHT22;11438;52.044;8.716;2022-11-15T04:31:28;14.30;99.20
22544;DHT22;11438;52.044;8.716;2022-11-15T04:33:55;14.30;98.80
22544;DHT22;11438;52.044;8.716;2022-11-15T04:36:21;14.20;98.80
22544;DHT22;11438;52.044;8.716;2022-11-15T04:39:05;14.20;98.80
22544;DHT22;11438;52.044;8.716;2022-11-15T04:41:31;14.30;98.80
22544;DHT22;11438;52.044;8.716;2022-11-15T04:43:56;14.20;98.70
22544;DHT22;11438;52.044;8.716;2022-11-15T04:46:23;14.20;98.70
22544;DHT22;11438;52.044;8.716;2022-11-15T04:48:49;14.20;98.70
22544;DHT22;11438;52.044;8.716;2022-11-15T04:51:15;14.20;98.70
22544;DHT22;11438;52.044;8.716;2022-11-15T04:53:41;14.20;98.80
22544;DHT22;11438;52.044;8.716;2022-11-15T04:56:07;14.20;98.80
22544;DHT22;11438;52.044;8.716;2022-11-15T04:58:32;14.20;98.80
22544;DHT22;11438;52.044;8.716;2022-11-15T05:01:12;14.20;98.80
22544;DHT22;11438;52.044;8.716;2022-11-15T05:03:40;14.20;98.80
22544;DHT22;11438;52.044;8.716;2022-11-15T05:06:24;14.20;98.80
22544;DHT22;11438;52.044;8.716;2022-11-15T05:08:49;14.20;98.80
22544;DHT22;11438;52.044;8.716;2022-11-15T05:11:15;14.20;98.80
22544;DHT22;11438;52.044;8.716;2022-11-15T05:13:40;14.20;98.80
22544;DHT22;11438;52.044;8.716;2022-11-15T05:16:06;14.20;98.80
22544;DHT22;11438;52.044;8.716;2022-11-15T05:18:32;14.20;98.80
22544;DHT22;11438;52.044;8.716;2022-11-15T05:21:07;14.10;98.80
22544;DHT22;11438;52.044;8.716;2022-11-15T05:23:33;14.20;98.90
22544;DHT22;11438;52.044;8.716;2022-11-15T05:25:59;14.20;98.90
22544;DHT22;11438;52.044;8.716;2022-11-15T05:28:25;14.20;98.80
22544;DHT22;11438;52.044;8.716;2022-11-15T05:30:50;14.20;98.80
22544;DHT22;11438;52.044;8.716;2022-11-15T05:33:17;14.20;98.80
22544;DHT22;11438;52.044;8.716;2022-11-15T05:35:54;14.20;98.90
22544;DHT22;11438;52.044;8.716;2022-11-15T05:38:20;14.20;98.90
22544;DHT22;11438;52.044;8.716;2022-11-15T05:40:46;14.20;98.90
22544;DHT22;11438;52.044;8.716;2022-11-15T05:43:11;14.20;98.90
22544;DHT22;11438;52.044;8.716;2022-11-15T05:45:37;14.20;98.80
22544;DHT22;11438;52.044;8.716;2022-11-15T05:48:06;14.20;98.80
22544;DHT22;11438;52.044;8.716;2022-11-15T05:50:33;14.20;98.80
22544;DHT22;11438;52.044;8.716;2022-11-15T05:53:02;14.20;98.80
22544;DHT22;11438;52.044;8.716;2022-11-15T05:55:28;14.20;98.80
22544;DHT22;11438;52.044;8.716;2022-11-15T05:57:53;14.10;98.80
22544;DHT22;11438;52.044;8.716;2022-11-15T06:00:19;14.20;98.80
22544;DHT22;11438;52.044;8.716;2022-11-15T06:02:44;14.20;98.90
22544;DHT22;11438;52.044;8.716;2022-11-15T06:05:10;14.20;98.90
22544;DHT22;11438;52.044;8.716;2022-11-15T06:07:35;14.20;98.90
22544;DHT22;11438;52.044;8.716;2022-11-15T06:10:01;14.20;99.00
22544;DHT22;11438;52.044;8.716;2022-11-15T06:12:26;14.20;99.40
22544;DHT22;11438;52.044;8.716;2022-11-15T06:14:52;14.20;99.20
22544;DHT22;11438;52.044;8.716;2022-11-15T06:17:17;14.20;99.30
22544;DHT22;11438;52.044;8.716;2022-11-15T06:19:43;14.20;99.40
22544;DHT22;11438;52.044;8.716;2022-11-15T06:22:09;14.20;99.40
22544;DHT22;11438;52.044;8.716;2022-11-15T06:24:35;14.30;99.50
22544;DHT22;11438;52.044;8.716;2022-11-15T06:27:00;14.30;99.50
22544;DHT22;11438;52.044;8.716;2022-11-15T06:29:26;14.30;99.50
22544;DHT22;11438;52.044;8.716;2022-11-15T06:31:51;14.30;99.50
22544;DHT22;11438;52.044;8.716;2022-11-15T06:34:18;14.40;99.60
22544;DHT22;11438;52.044;8.716;2022-11-15T06:36:43;14.40;99.60
22544;DHT22;11438;52.044;8.716;2022-11-15T06:39:09;14.40;99.60
22544;DHT22;11438;52.044;8.716;2022-11-15T06:41:35;14.40;99.50
22544;DHT22;11438;52.044;8.716;2022-11-15T06:44:01;14.40;99.50
22544;DHT22;11438;52.044;8.716;2022-11-15T06:46:26;14.50;99.50
22544;DHT22;11438;52.044;8.716;2022-11-15T06:48:52;14.50;99.30
22544;DHT22;11438;52.044;8.716;2022-11-15T06:51:18;14.50;99.20
22544;DHT22;11438;52.044;8.716;2022-11-15T06:53:43;14.50;99.00
22544;DHT22;11438;52.044;8.716;2022-11-15T06:56:09;14.50;98.90
22544;DHT22;11438;52.044;8.716;2022-11-15T06:58:35;14.50;98.80
22544;DHT22;11438;52.044;8.716;2022-11-15T07:01:03;14.50;98.80
22544;DHT22;11438;52.044;8.716;2022-11-15T07:03:29;14.50;98.80
22544;DHT22;11438;52.044;8.716;2022-11-15T07:05:56;14.50;98.70
22544;DHT22;11438;52.044;8.716;2022-11-15T07:08:23;14.40;98.70
22544;DHT22;11438;52.044;8.716;2022-11-15T07:10:49;14.40;98.80
22544;DHT22;11438;52.044;8.716;2022-11-15T07:13:15;14.40;98.80
22544;DHT22;11438;52.044;8.716;2022-11-15T07:15:41;14.40;98.80
22544;DHT22;11438;52.044;8.716;2022-11-15T07:18:06;14.40;98.80
22544;DHT22;11438;52.044;8.716;2022-11-15T07:20:32;14.30;98.80
22544;DHT22;11438;52.044;8.716;2022-11-15T07:23:02;14.40;98.90
22544;DHT22;11438;52.044;8.716;2022-11-15T07:25:28;14.30;98.90
22544;DHT22;11438;52.044;8.716;2022-11-15T07:27:57;14.30;99.00
22544;DHT22;11438;52.044;8.716;2022-11-15T07:30:24;14.30;99.10
22544;DHT22;11438;52.044;8.716;2022-11-15T07:33:00;14.30;99.10
22544;DHT22;11438;52.044;8.716;2022-11-15T07:35:27;14.30;99.20
22544;DHT22;11438;52.044;8.716;2022-11-15T07:38:00;14.40;99.30
22544;DHT22;11438;52.044;8.716;2022-11-15T07:40:27;14.40;99.40
22544;DHT22;11438;52.044;8.716;2022-11-15T07:43:02;14.40;99.50
22544;DHT22;11438;52.044;8.716;2022-11-15T07:45:28;14.50;99.60
22544;DHT22;11438;52.044;8.716;2022-11-15T07:47:54;14.50;99.60
22544;DHT22;11438;52.044;8.716;2022-11-15T07:50:24;14.60;99.60
22544;DHT22;11438;52.044;8.716;2022-11-15T07:52:58;14.60;99.50
22544;DHT22;11438;52.044;8.716;2022-11-15T07:55:25;14.60;99.50
22544;DHT22;11438;52.044;8.716;2022-11-15T07:57:52;14.70;99.50
22544;DHT22;11438;52.044;8.716;2022-11-15T08:00:18;14.80;99.50
22544;DHT22;11438;52.044;8.716;2022-11-15T08:02:44;14.80;99.50
22544;DHT22;11438;52.044;8.716;2022-11-15T08:05:10;14.90;99.50
22544;DHT22;11438;52.044;8.716;2022-11-15T08:07:36;14.90;99.40
22544;DHT22;11438;52.044;8.716;2022-11-15T08:10:03;15.00;99.50
22544;DHT22;11438;52.044;8.716;2022-11-15T08:12:31;15.10;99.40
22544;DHT22;11438;52.044;8.716;2022-11-15T08:14:57;15.10;99.40
22544;DHT22;11438;52.044;8.716;2022-11-15T08:17:24;15.20;99.30
22544;DHT22;11438;52.044;8.716;2022-11-15T08:19:49;15.20;99.30
22544;DHT22;11438;52.044;8.716;2022-11-15T08:22:15;15.30;99.30
22544;DHT22;11438;52.044;8.716;2022-11-15T08:24:40;15.30;99.20
22544;DHT22;11438;52.044;8.716;2022-11-15T08:27:07;15.40;99.20
22544;DHT22;11438;52.044;8.716;2022-11-15T08:29:44;15.40;99.20
22544;DHT22;11438;52.044;8.716;2022-11-15T08:32:10;15.50;99.10
22544;DHT22;11438;52.044;8.716;2022-11-15T08:34:37;15.60;99.10
22544;DHT22;11438;52.044;8.716;2022-11-15T08:37:02;15.60;99.00
22544;DHT22;11438;52.044;8.716;2022-11-15T08:39:28;15.70;98.90
22544;DHT22;11438;52.044;8.716;2022-11-15T08:41:53;15.70;98.80
22544;DHT22;11438;52.044;8.716;2022-11-15T08:44:19;15.80;98.80
22544;DHT22;11438;52.044;8.716;2022-11-15T08:46:48;15.80;98.70
22544;DHT22;11438;52.044;8.716;2022-11-15T08:49:13;15.90;98.90
22544;DHT22;11438;52.044;8.716;2022-11-15T08:51:39;15.90;98.70
22544;DHT22;11438;52.044;8.716;2022-11-15T08:54:04;16.00;98.70
22544;DHT22;11438;52.044;8.716;2022-11-15T08:56:30;16.10;98.50
22544;DHT22;11438;52.044;8.716;2022-11-15T08:58:56;16.10;98.30
22544;DHT22;11438;52.044;8.716;2022-11-15T09:01:22;16.20;98.20
22544;DHT22;11438;52.044;8.716;2022-11-15T09:03:48;16.30;98.20
22544;DHT22;11438;52.044;8.716;2022-11-15T09:06:14;16.30;98.00
22544;DHT22;11438;52.044;8.716;2022-11-15T09:08:40;16.40;98.00
22544;DHT22;11438;52.044;8.716;2022-11-15T09:11:07;16.40;97.90
22544;DHT22;11438;52.044;8.716;2022-11-15T09:13:33;16.50;97.80
22544;DHT22;11438;52.044;8.716;2022-11-15T09:16:03;16.50;97.70
22544;DHT22;11438;52.044;8.716;2022-11-15T09:18:29;16.50;97.60
22544;DHT22;11438;52.044;8.716;2022-11-15T09:20:58;16.50;97.50
22544;DHT22;11438;52.044;8.716;2022-11-15T09:23:24;16.50;97.40
22544;DHT22;11438;52.044;8.716;2022-11-15T09:25:50;16.60;97.50
22544;DHT22;11438;52.044;8.716;2022-11-15T09:28:15;16.60;97.50
22544;DHT22;11438;52.044;8.716;2022-11-15T09:30:41;16.60;97.20
22544;DHT22;11438;52.044;8.716;2022-11-15T09:33:08;16.60;97.10
22544;DHT22;11438;52.044;8.716;2022-11-15T09:35:33;16.60;96.90
22544;DHT22;11438;52.044;8.716;2022-11-15T09:37:59;16.70;96.80
22544;DHT22;11438;52.044;8.716;2022-11-15T09:40:25;16.60;96.70
22544;DHT22;11438;52.044;8.716;2022-11-15T09:42:58;16.70;96.60
22544;DHT22;11438;52.044;8.716;2022-11-15T09:45:37;16.70;96.60
22544;DHT22;11438;52.044;8.716;2022-11-15T09:48:42;16.70;96.50
22544;DHT22;11438;52.044;8.716;2022-11-15T09:51:24;16.70;96.50
22544;DHT22;11438;52.044;8.716;2022-11-15T09:56:32;16.80;96.40
22544;DHT22;11438;52.044;8.716;2022-11-15T09:59:36;16.80;96.30
22544;DHT22;11438;52.044;8.716;2022-11-15T10:02:47;16.80;96.70
22544;DHT22;11438;52.044;8.716;2022-11-15T10:05:20;16.90;96.40
22544;DHT22;11438;52.044;8.716;2022-11-15T10:10:47;16.90;96.00
22544;DHT22;11438;52.044;8.716;2022-11-15T10:13:23;17.00;96.00
22544;DHT22;11438;52.044;8.716;2022-11-15T10:15:50;17.00;95.50
22544;DHT22;11438;52.044;8.716;2022-11-15T10:18:28;17.00;95.40
22544;DHT22;11438;52.044;8.716;2022-11-15T10:20:59;17.00;95.30
22544;DHT22;11438;52.044;8.716;2022-11-15T10:23:26;17.00;95.30
22544;DHT22;11438;52.044;8.716;2022-11-15T10:25:57;17.00;95.10
22544;DHT22;11438;52.044;8.716;2022-11-15T10:28:28;17.00;95.10
22544;DHT22;11438;52.044;8.716;2022-11-15T10:30:56;17.10;95.10
22544;DHT22;11438;52.044;8.716;2022-11-15T10:33:39;17.10;95.10
22544;DHT22;11438;52.044;8.716;2022-11-15T10:36:18;17.10;94.80
22544;DHT22;11438;52.044;8.716;2022-11-15T10:38:55;17.20;94.80
22544;DHT22;11438;52.044;8.716;2022-11-15T10:41:41;17.20;94.60
22544;DHT22;11438;52.044;8.716;2022-11-15T10:46:35;17.30;94.60
22544;DHT22;11438;52.044;8.716;2022-11-15T10:49:28;17.30;95.00
22544;DHT22;11438;52.044;8.716;2022-11-15T10:52:04;17.30;94.70
22544;DHT22;11438;52.044;8.716;2022-11-15T10:54:40;17.30;94.40
22544;DHT22;11438;52.044;8.716;2022-11-15T10:57:15;17.30;94.20
22544;DHT22;11438;52.044;8.716;2022-11-15T10:59:51;17.40;94.10
22544;DHT22;11438;52.044;8.716;2022-11-15T11:04:55;17.40;94.10
22544;DHT22;11438;52.044;8.716;2022-11-15T11:07:23;17.40;94.10
22544;DHT22;11438;52.044;8.716;2022-11-15T11:10:01;17.50;94.00
22544;DHT22;11438;52.044;8.716;2022-11-15T11:12:30;17.50;93.80
22544;DHT22;11438;52.044;8.716;2022-11-15T11:14:58;17.50;93.70
22544;DHT22;11438;52.044;8.716;2022-11-15T11:23:23;17.60;93.50
22544;DHT22;11438;52.044;8.716;2022-11-15T11:26:45;17.60;93.20
22544;DHT22;11438;52.044;8.716;2022-11-15T11:29:19;17.70;93.20
22544;DHT22;11438;52.044;8.716;2022-11-15T11:32:07;17.70;93.10
22544;DHT22;11438;52.044;8.716;2022-11-15T11:34:56;17.70;92.90
22544;DHT22;11438;52.044;8.716;2022-11-15T11:37:25;17.70;92.80
22544;DHT22;11438;52.044;8.716;2022-11-15T11:40:16;17.70;92.90
22544;DHT22;11438;52.044;8.716;2022-11-15T11:42:58;17.70;92.70
22544;DHT22;11438;52.044;8.716;2022-11-15T11:48:13;17.80;92.80
22544;DHT22;11438;52.044;8.716;2022-11-15T11:50:41;17.80;92.60
22544;DHT22;11438;52.044;8.716;2022-11-15T11:53:36;17.80;92.70
22544;DHT22;11438;52.044;8.716;2022-11-15T11:56:12;17.80;92.60
22544;DHT22;11438;52.044;8.716;2022-11-15T11:58:43;17.80;92.70
22544;DHT22;11438;52.044;8.716;2022-11-15T12:01:18;17.80;92.60
22544;DHT22;11438;52.044;8.716;2022-11-15T12:04:25;17.80;92.90
22544;DHT22;11438;52.044;8.716;2022-11-15T12:07:19;17.80;92.70
22544;DHT22;11438;52.044;8.716;2022-11-15T12:09:53;17.80;92.70
22544;DHT22;11438;52.044;8.716;2022-11-15T12:12:49;17.80;92.60
22544;DHT22;11438;52.044;8.716;2022-11-15T12:15:21;17.80;92.70
22544;DHT22;11438;52.044;8.716;2022-11-15T12:17:48;17.80;92.20
22544;DHT22;11438;52.044;8.716;2022-11-15T12:20:25;17.80;92.20
22544;DHT22;11438;52.044;8.716;2022-11-15T12:25:45;17.80;91.80
22544;DHT22;11438;52.044;8.716;2022-11-15T12:30:57;17.80;92.00
22544;DHT22;11438;52.044;8.716;2022-11-15T12:33:34;17.80;92.10
22544;DHT22;11438;52.044;8.716;2022-11-15T12:36:55;17.80;91.90
22544;DHT22;11438;52.044;8.716;2022-11-15T12:39:01;17.80;92.00
22544;DHT22;11438;52.044;8.716;2022-11-15T12:41:39;17.80;92.10
22544;DHT22;11438;52.044;8.716;2022-11-15T12:44:11;17.80;92.10
22544;DHT22;11438;52.044;8.716;2022-11-15T12:49:42;17.90;91.90
22544;DHT22;11438;52.044;8.716;2022-11-15T12:52:09;17.80;91.80
22544;DHT22;11438;52.044;8.716;2022-11-15T12:59:54;17.90;92.30
22544;DHT22;11438;52.044;8.716;2022-11-15T13:02:39;17.90;92.30
22544;DHT22;11438;52.044;8.716;2022-11-15T13:12:54;18.00;92.70
22544;DHT22;11438;52.044;8.716;2022-11-15T13:15:56;18.10;92.80
22544;DHT22;11438;52.044;8.716;2022-11-15T13:18:35;18.10;92.80
22544;DHT22;11438;52.044;8.716;2022-11-15T13:21:03;18.10;92.80
22544;DHT22;11438;52.044;8.716;2022-11-15T13:23:54;18.10;92.70
22544;DHT22;11438;52.044;8.716;2022-11-15T13:26:21;18.20;92.70
22544;DHT22;11438;52.044;8.716;2022-11-15T13:28:48;18.20;92.90
22544;DHT22;11438;52.044;8.716;2022-11-15T13:33:44;18.20;93.00
22544;DHT22;11438;52.044;8.716;2022-11-15T13:36:28;18.20;93.10
22544;DHT22;11438;52.044;8.716;2022-11-15T13:39:06;18.20;93.10
22544;DHT22;11438;52.044;8.716;2022-11-15T13:41:46;18.20;93.10
22544;DHT22;11438;52.044;8.716;2022-11-15T13:44:20;18.20;93.20
22544;DHT22;11438;52.044;8.716;2022-11-15T13:46:46;18.30;93.40
22544;DHT22;11438;52.044;8.716;2022-11-15T13:49:11;18.30;93.00
22544;DHT22;11438;52.044;8.716;2022-11-15T13:51:48;18.40;92.90
22544;DHT22;11438;52.044;8.716;2022-11-15T13:54:33;18.40;92.60
22544;DHT22;11438;52.044;8.716;2022-11-15T13:57:05;18.50;92.40
22544;DHT22;11438;52.044;8.716;2022-11-15T13:59:47;18.50;92.30
22544;DHT22;11438;52.044;8.716;2022-11-15T14:02:18;18.50;92.10
22544;DHT22;11438;52.044;8.716;2022-11-15T14:04:55;18.50;91.90
22544;DHT22;11438;52.044;8.716;2022-11-15T14:07:24;18.50;91.90
22544;DHT22;11438;52.044;8.716;2022-11-15T14:09:51;18.50;91.80
22544;DHT22;11438;52.044;8.716;2022-11-15T14:12:29;18.50;91.80
22544;DHT22;11438;52.044;8.716;2022-11-15T14:14:56;18.50;91.50
22544;DHT22;11438;52.044;8.716;2022-11-15T14:17:40;18.50;91.50
22544;DHT22;11438;52.044;8.716;2022-11-15T14:23:04;18.50;91.40
22544;DHT22;11438;52.044;8.716;2022-11-15T14:25:32;18.50;91.30
22544;DHT22;11438;52.044;8.716;2022-11-15T14:30:35;18.40;91.00
22544;DHT22;11438;52.044;8.716;2022-11-15T14:33:01;18.40;91.00
22544;DHT22;11438;52.044;8.716;2022-11-15T14:35:28;18.40;91.00
22544;DHT22;11438;52.044;8.716;2022-11-15T14:37:53;18.40;91.00
22544;DHT22;11438;52.044;8.716;2022-11-15T14:40:21;18.30;90.90
22544;DHT22;11438;52.044;8.716;2022-11-15T14:42:48;18.30;90.90
22544;DHT22;11438;52.044;8.716;2022-11-15T14:45:21;18.20;90.70
22544;DHT22;11438;52.044;8.716;2022-11-15T14:47:47;18.20;90.70
22544;DHT22;11438;52.044;8.716;2022-11-15T14:50:21;18.10;90.70
22544;DHT22;11438;52.044;8.716;2022-11-15T14:52:47;18.10;90.80
22544;DHT22;11438;52.044;8.716;2022-11-15T14:55:28;18.10;90.90
22544;DHT22;11438;52.044;8.716;2022-11-15T14:57:54;18.10;90.90
22544;DHT22;11438;52.044;8.716;2022-11-15T15:00:20;18.00;90.90
22544;DHT22;11438;52.044;8.716;2022-11-15T15:02:47;18.00;90.90
22544;DHT22;11438;52.044;8.716;2022-11-15T15:05:31;18.00;90.80
22544;DHT22;11438;52.044;8.716;2022-11-15T15:07:57;18.00;90.90
22544;DHT22;11438;52.044;8.716;2022-11-15T15:10:24;17.90;90.90
22544;DHT22;11438;52.044;8.716;2022-11-15T15:12:50;17.90;90.90
22544;DHT22;11438;52.044;8.716;2022-11-15T15:15:24;17.90;90.90
22544;DHT22;11438;52.044;8.716;2022-11-15T15:17:49;17.80;90.90
22544;DHT22;11438;52.044;8.716;2022-11-15T15:20:15;17.80;90.80
22544;DHT22;11438;52.044;8.716;2022-11-15T15:22:41;17.80;90.90
22544;DHT22;11438;52.044;8.716;2022-11-15T15:27:54;17.70;90.80
22544;DHT22;11438;52.044;8.716;2022-11-15T15:30:20;17.80;90.80
22544;DHT22;11438;52.044;8.716;2022-11-15T15:32:46;17.70;90.80
22544;DHT22;11438;52.044;8.716;2022-11-15T15:35:13;17.60;90.70
22544;DHT22;11438;52.044;8.716;2022-11-15T15:37:40;17.70;90.70
22544;DHT22;11438;52.044;8.716;2022-11-15T15:40:25;17.60;90.70
22544;DHT22;11438;52.044;8.716;2022-11-15T15:42:51;17.60;90.70
22544;DHT22;11438;52.044;8.716;2022-11-15T15:45:17;17.60;90.60
22544;DHT22;11438;52.044;8.716;2022-11-15T15:47:44;17.50;90.60
22544;DHT22;11438;52.044;8.716;2022-11-15T15:52:55;17.50;90.70
22544;DHT22;11438;52.044;8.716;2022-11-15T15:55:21;17.50;90.70
22544;DHT22;11438;52.044;8.716;2022-11-15T15:57:48;17.50;90.70
22544;DHT22;11438;52.044;8.716;2022-11-15T16:00:14;17.50;90.60
22544;DHT22;11438;52.044;8.716;2022-11-15T16:02:40;17.50;90.60
22544;DHT22;11438;52.044;8.716;2022-11-15T16:05:07;17.50;90.70
22544;DHT22;11438;52.044;8.716;2022-11-15T16:07:33;17.50;90.70
22544;DHT22;11438;52.044;8.716;2022-11-15T16:09:59;17.50;90.70
22544;DHT22;11438;52.044;8.716;2022-11-15T16:12:33;17.50;90.70
22544;DHT22;11438;52.044;8.716;2022-11-15T16:14:59;17.50;90.70
22544;DHT22;11438;52.044;8.716;2022-11-15T16:17:28;17.40;90.70
22544;DHT22;11438;52.044;8.716;2022-11-15T16:19:55;17.40;90.60
22544;DHT22;11438;52.044;8.716;2022-11-15T16:22:20;17.50;90.70
22544;DHT22;11438;52.044;8.716;2022-11-15T16:24:46;17.40;90.70
22544;DHT22;11438;52.044;8.716;2022-11-15T16:27:17;17.40;90.70
22544;DHT22;11438;52.044;8.716;2022-11-15T16:29:43;17.40;90.70
22544;DHT22;11438;52.044;8.716;2022-11-15T16:32:09;17.40;90.70
22544;DHT22;11438;52.044;8.716;2022-11-15T16:34:34;17.40;90.80
22544;DHT22;11438;52.044;8.716;2022-11-15T16:37:00;17.40;90.90
22544;DHT22;11438;52.044;8.716;2022-11-15T16:39:26;17.40;90.90
22544;DHT22;11438;52.044;8.716;2022-11-15T16:41:58;17.40;91.00
22544;DHT22;11438;52.044;8.716;2022-11-15T16:44:24;17.40;91.10
22544;DHT22;11438;52.044;8.716;2022-11-15T16:46:50;17.40;91.10
22544;DHT22;11438;52.044;8.716;2022-11-15T16:49:17;17.40;91.20
22544;DHT22;11438;52.044;8.716;2022-11-15T16:51:45;17.30;91.10
22544;DHT22;11438;52.044;8.716;2022-11-15T16:54:11;17.30;91.30
22544;DHT22;11438;52.044;8.716;2022-11-15T16:56:37;17.40;91.50
22544;DHT22;11438;52.044;8.716;2022-11-15T16:59:03;17.30;91.50
22544;DHT22;11438;52.044;8.716;2022-11-15T17:01:31;17.30;91.60
22544;DHT22;11438;52.044;8.716;2022-11-15T17:03:58;17.30;91.80
22544;DHT22;11438;52.044;8.716;2022-11-15T17:06:25;17.30;91.90
22544;DHT22;11438;52.044;8.716;2022-11-15T17:08:51;17.30;92.00
22544;DHT22;11438;52.044;8.716;2022-11-15T17:11:21;17.30;92.00
22544;DHT22;11438;52.044;8.716;2022-11-15T17:13:47;17.40;92.20
22544;DHT22;11438;52.044;8.716;2022-11-15T17:16:15;17.30;92.20
22544;DHT22;11438;52.044;8.716;2022-11-15T17:18:42;17.30;92.20
22544;DHT22;11438;52.044;8.716;2022-11-15T17:21:17;17.30;92.20